createdAt,value
2022-09-03T00:01:01.063Z,18.26
2022-09-03T00:03:51.759Z,18.34
2022-09-03T00:06:28.755Z,18.13
2022-09-03T00:09:01.996Z,18.17
2022-09-03T00:11:55.263Z,18.06
2022-09-03T00:14:33.250Z,18.22
2022-09-03T00:17:14.563Z,18.18
2022-09-03T00:19:57.949Z,18.11
2022-09-03T00:22:41.999Z,17.86
2022-09-03T00:25:14.643Z,18.11
2022-09-03T00:27:43.795Z,17.38
2022-09-03T00:30:17.156Z,18.01
2022-09-03T00:33:09.604Z,18.26
2022-09-03T00:35:38.994Z,17.92
2022-09-03T00:38:06.295Z,18.13
2022-09-03T00:40:45.627Z,18.09
2022-09-03T00:43:32.792Z,18.21
2022-09-03T00:46:19.612Z,18.14
2022-09-03T00:49:15.847Z,17.83
2022-09-03T00:51:56.935Z,17.92
2022-09-03T00:54:41.908Z,18.09
2022-09-03T00:57:44.829Z,17.55
2022-09-03T01:00:16.610Z,17.77
2022-09-03T01:03:07.047Z,17.78
2022-09-03T01:05:52.689Z,17.72
2022-09-03T01:08:49.309Z,17.62
2022-09-03T01:11:57.445Z,17.63
2022-09-03T01:14:36.584Z,17.52
2022-09-03T01:17:24.970Z,17.68
2022-09-03T01:19:52.356Z,17.60
2022-09-03T01:22:28.991Z,17.77
2022-09-03T01:24:58.882Z,17.92
2022-09-03T01:27:46.798Z,18.08
2022-09-03T01:30:23.010Z,17.79
2022-09-03T01:33:02.535Z,17.84
2022-09-03T01:35:53.144Z,17.92
2022-09-03T01:38:38.406Z,17.70
2022-09-03T01:41:36.252Z,17.82
2022-09-03T01:44:24.589Z,17.51
2022-09-03T01:47:03.034Z,17.66
2022-09-03T01:49:41.498Z,17.53
2022-09-03T01:52:14.365Z,17.63
2022-09-03T01:55:06.614Z,17.48
2022-09-03T01:57:45.960Z,17.56
2022-09-03T02:00:20.740Z,17.29
2022-09-03T02:02:52.287Z,17.32
2022-09-03T02:05:29.749Z,17.36
2022-09-03T02:08:07.985Z,17.34
2022-09-03T02:10:45.759Z,17.39
2022-09-03T02:13:15.940Z,17.06
2022-09-03T02:15:43.767Z,17.09
2022-09-03T02:18:15.389Z,17.32
2022-09-03T02:20:42.792Z,17.29
2022-09-03T02:23:09.858Z,17.21
2022-09-03T02:25:42.580Z,17.22
2022-09-03T02:28:17.220Z,17.38
2022-09-03T02:30:55.207Z,17.36
2022-09-03T02:33:22.649Z,17.05
2022-09-03T02:35:50.802Z,17.19
2022-09-03T02:38:21.218Z,17.17
2022-09-03T02:40:48.888Z,17.16
2022-09-03T02:43:25.968Z,16.88
2022-09-03T02:45:57.268Z,16.97
2022-09-03T02:48:24.831Z,16.87
2022-09-03T02:50:52.035Z,16.37
2022-09-03T02:53:19.060Z,16.53
2022-09-03T02:55:46.392Z,16.96
2022-09-03T02:58:13.623Z,17.17
2022-09-03T03:00:40.614Z,17.24
2022-09-03T03:03:07.943Z,16.93
2022-09-03T03:05:46.944Z,17.12
2022-09-03T03:08:17.254Z,16.87
2022-09-03T03:10:45.183Z,16.74
2022-09-03T03:13:12.872Z,16.65
2022-09-03T03:15:40.725Z,16.76
2022-09-03T03:18:08.032Z,16.77
2022-09-03T03:20:35.405Z,17.05
2022-09-03T03:23:02.609Z,16.88
2022-09-03T03:25:31.780Z,17.02
2022-09-03T03:27:58.933Z,16.80
2022-09-03T03:30:26.420Z,16.88
2022-09-03T03:32:54.487Z,16.95
2022-09-03T03:35:21.851Z,16.99
2022-09-03T03:37:49.261Z,17.00
2022-09-03T03:40:16.602Z,16.78
2022-09-03T03:42:43.999Z,17.07
2022-09-03T03:45:11.127Z,17.04
2022-09-03T03:47:38.366Z,16.75
2022-09-03T03:50:05.984Z,16.99
2022-09-03T03:52:32.972Z,17.03
2022-09-03T03:54:59.912Z,17.19
2022-09-03T03:57:31.026Z,17.21
2022-09-03T03:59:58.062Z,17.06
2022-09-03T04:02:25.170Z,17.02
2022-09-03T04:04:54.974Z,17.03
2022-09-03T04:07:22.158Z,17.10
2022-09-03T04:09:49.567Z,17.18
2022-09-03T04:12:19.287Z,17.03
2022-09-03T04:14:46.301Z,17.20
2022-09-03T04:17:13.292Z,17.30
2022-09-03T04:19:40.344Z,17.47
2022-09-03T04:22:07.366Z,17.29
2022-09-03T04:24:35.254Z,17.46
2022-09-03T04:27:02.705Z,17.57
2022-09-03T04:29:31.368Z,17.56
2022-09-03T04:32:17.119Z,16.99
2022-09-03T04:34:44.207Z,17.53
2022-09-03T04:37:13.701Z,17.76
2022-09-03T04:39:40.978Z,17.91
2022-09-03T04:42:08.155Z,17.90
2022-09-03T04:44:38.433Z,17.90
2022-09-03T04:47:05.685Z,18.09
2022-09-03T04:49:32.858Z,18.16
2022-09-03T04:51:59.877Z,17.81
2022-09-03T04:54:28.113Z,17.79
2022-09-03T04:56:56.576Z,17.48
2022-09-03T04:59:23.555Z,17.73
2022-09-03T05:01:52.818Z,17.55
2022-09-03T05:04:22.104Z,17.28
2022-09-03T05:06:49.109Z,16.79
2022-09-03T05:09:16.314Z,17.43
2022-09-03T05:11:43.311Z,17.17
2022-09-03T05:14:12.730Z,17.54
2022-09-03T05:16:42.516Z,17.56
2022-09-03T05:19:19.744Z,16.70
2022-09-03T05:21:46.798Z,17.41
2022-09-03T05:24:15.337Z,16.63
2022-09-03T05:26:42.266Z,17.50
2022-09-03T05:29:09.493Z,17.38
2022-09-03T05:31:39.312Z,17.58
2022-09-03T05:34:07.308Z,18.05
2022-09-03T05:36:37.006Z,17.46
2022-09-03T05:39:21.591Z,17.42
2022-09-03T05:41:50.623Z,17.55
2022-09-03T05:44:17.778Z,18.01
2022-09-03T05:46:44.791Z,17.75
2022-09-03T05:49:11.953Z,18.26
2022-09-03T05:51:42.608Z,18.28
2022-09-03T05:54:10.559Z,18.39
2022-09-03T05:56:42.863Z,18.56
2022-09-03T05:59:10.511Z,18.61
2022-09-03T06:01:50.382Z,18.53
2022-09-03T06:04:21.281Z,18.81
2022-09-03T06:06:49.018Z,18.66
2022-09-03T06:09:18.471Z,18.26
2022-09-03T06:11:50.086Z,18.02
2022-09-03T06:14:17.926Z,18.80
2022-09-03T06:16:49.721Z,19.19
2022-09-03T06:19:17.225Z,20.75
2022-09-03T06:21:45.498Z,20.60
2022-09-03T06:24:15.052Z,20.03
2022-09-03T06:26:43.012Z,20.82
2022-09-03T06:29:11.300Z,21.74
2022-09-03T06:31:39.332Z,21.11
2022-09-03T06:34:06.446Z,20.68
2022-09-03T06:36:33.835Z,22.45
2022-09-03T06:39:01.609Z,21.91
2022-09-03T06:41:35.438Z,23.15
2022-09-03T06:44:05.264Z,24.19
2022-09-03T06:46:38.982Z,23.00
2022-09-03T06:49:09.039Z,21.38
2022-09-03T06:51:37.792Z,22.43
2022-09-03T06:54:07.034Z,23.21
2022-09-03T06:56:39.987Z,23.92
2022-09-03T06:59:12.918Z,24.48
2022-09-03T07:01:44.441Z,23.91
2022-09-03T07:04:13.650Z,24.35
2022-09-03T07:06:42.740Z,25.06
2022-09-03T07:09:11.640Z,26.31
2022-09-03T07:11:47.361Z,26.03
2022-09-03T07:14:16.272Z,26.51
2022-09-03T07:16:43.893Z,28.68
2022-09-03T07:19:12.165Z,27.90
2022-09-03T07:21:48.792Z,27.87
2022-09-03T07:24:16.260Z,28.17
2022-09-03T07:26:49.568Z,27.03
2022-09-03T07:29:20.473Z,28.17
2022-09-03T07:31:52.192Z,27.71
2022-09-03T07:34:20.451Z,27.93
2022-09-03T07:36:51.305Z,26.06
2022-09-03T07:39:21.788Z,25.53
2022-09-03T07:41:48.879Z,25.81
2022-09-03T07:44:19.875Z,25.56
2022-09-03T07:46:50.286Z,27.48
2022-09-03T07:49:17.414Z,26.98
2022-09-03T07:51:46.638Z,27.99
2022-09-03T07:54:13.605Z,28.64
2022-09-03T07:56:41.201Z,29.86
2022-09-03T07:59:09.452Z,28.64
2022-09-03T08:01:38.420Z,29.57
2022-09-03T08:04:09.592Z,28.60
2022-09-03T08:06:38.072Z,28.53
2022-09-03T08:09:08.270Z,29.35
2022-09-03T08:11:39.842Z,28.94
2022-09-03T08:14:09.105Z,28.67
2022-09-03T08:16:38.311Z,28.59
2022-09-03T08:19:11.450Z,26.51
2022-09-03T08:21:38.845Z,27.54
2022-09-03T08:24:06.508Z,28.04
2022-09-03T08:26:35.621Z,29.46
2022-09-03T08:29:03.599Z,28.81
2022-09-03T08:31:30.795Z,28.92
2022-09-03T08:34:06.755Z,28.93
2022-09-03T08:36:41.490Z,27.55
2022-09-03T08:39:10.505Z,28.75
2022-09-03T08:42:02.500Z,28.86
2022-09-03T08:44:40.021Z,29.43
2022-09-03T08:47:26.115Z,27.82
2022-09-03T08:50:32.369Z,30.01
2022-09-03T08:53:22.907Z,28.79
2022-09-03T08:55:52.641Z,27.60
2022-09-03T08:58:27.012Z,29.76
2022-09-03T09:01:04.144Z,30.47
2022-09-03T09:03:34.781Z,28.57
2022-09-03T09:06:30.380Z,29.77
2022-09-03T09:09:04.757Z,28.89
2022-09-03T09:11:34.714Z,29.42
2022-09-03T09:14:09.353Z,28.49
2022-09-03T09:16:45.515Z,28.53
2022-09-03T09:19:50.909Z,29.62
2022-09-03T09:22:50.696Z,28.71
2022-09-03T09:25:22.258Z,29.78
2022-09-03T09:28:01.877Z,29.64
2022-09-03T09:30:30.640Z,30.77
2022-09-03T09:32:57.924Z,29.17
2022-09-03T09:35:24.940Z,29.93
2022-09-03T09:37:53.492Z,30.40
2022-09-03T09:40:44.900Z,30.56
2022-09-03T09:43:23.793Z,30.41
2022-09-03T09:45:52.805Z,31.48
2022-09-03T09:48:46.568Z,31.07
2022-09-03T09:51:19.081Z,29.15
2022-09-03T09:53:46.845Z,29.46
2022-09-03T09:56:24.599Z,30.36
2022-09-03T09:59:04.647Z,29.32
2022-09-03T10:01:32.192Z,29.35
2022-09-03T10:04:07.916Z,29.45
2022-09-03T10:06:53.867Z,30.76
2022-09-03T10:09:23.429Z,28.61
2022-09-03T10:12:14.410Z,28.84
2022-09-03T10:14:50.010Z,27.68
2022-09-03T10:17:28.371Z,30.60
2022-09-03T10:20:28.326Z,28.70
2022-09-03T10:23:16.507Z,29.00
2022-09-03T10:25:52.104Z,29.94
2022-09-03T10:28:24.117Z,28.36
2022-09-03T10:31:25.992Z,29.30
2022-09-03T10:34:01.981Z,28.65
2022-09-03T10:36:47.508Z,29.28
2022-09-03T10:39:23.731Z,28.53
2022-09-03T10:42:08.629Z,26.93
2022-09-03T10:44:46.521Z,28.80
2022-09-03T10:47:32.409Z,29.35
2022-09-03T10:50:16.861Z,30.35
2022-09-03T10:53:07.088Z,29.66
2022-09-03T10:56:01.002Z,28.78
2022-09-03T10:58:40.652Z,28.98
2022-09-03T11:01:23.213Z,27.07
2022-09-03T11:04:05.753Z,28.89
2022-09-03T11:06:55.567Z,27.31
2022-09-03T11:09:26.845Z,28.68
2022-09-03T11:12:03.757Z,28.28
2022-09-03T11:15:05.771Z,27.69
2022-09-03T11:17:39.791Z,27.60
2022-09-03T11:20:17.170Z,28.57
2022-09-03T11:22:45.371Z,29.42
2022-09-03T11:25:17.569Z,27.26
2022-09-03T11:27:59.010Z,27.71
2022-09-03T11:30:37.953Z,28.88
2022-09-03T11:33:11.729Z,28.98
2022-09-03T11:35:42.989Z,28.93
2022-09-03T11:38:16.660Z,28.22
2022-09-03T11:41:03.957Z,28.22
2022-09-03T11:43:32.545Z,28.33
2022-09-03T11:46:27.844Z,28.22
2022-09-03T11:48:57.821Z,28.12
2022-09-03T11:51:31.096Z,28.49
2022-09-03T11:54:07.154Z,27.62
2022-09-03T11:56:35.955Z,28.60
2022-09-03T11:59:26.794Z,28.77
2022-09-03T12:01:57.426Z,28.15
2022-09-03T12:04:42.972Z,28.40
2022-09-03T12:07:20.918Z,28.66
2022-09-03T12:09:57.659Z,27.74
2022-09-03T12:12:40.711Z,27.99
2022-09-03T12:15:19.290Z,27.67
2022-09-03T12:18:14.057Z,29.32
2022-09-03T12:20:42.180Z,29.44
2022-09-03T12:23:15.217Z,27.64
2022-09-03T12:25:47.597Z,27.30
2022-09-03T12:28:20.952Z,27.57
2022-09-03T12:30:48.403Z,28.81
2022-09-03T12:33:18.415Z,28.69
2022-09-03T12:36:02.002Z,28.50
2022-09-03T12:38:30.176Z,27.45
2022-09-03T12:43:52.059Z,26.40
2022-09-03T12:46:33.856Z,27.47
2022-09-03T12:52:06.511Z,28.19
2022-09-03T12:54:37.569Z,27.88
2022-09-03T12:57:04.983Z,27.47
2022-09-03T12:59:35.183Z,27.60
2022-09-03T13:02:12.765Z,27.16
2022-09-03T13:04:40.784Z,26.39
2022-09-03T13:07:35.233Z,27.62
2022-09-03T13:10:07.048Z,27.79
2022-09-03T13:12:53.366Z,27.58
2022-09-03T13:15:25.888Z,28.23
2022-09-03T13:18:10.134Z,28.42
2022-09-03T13:20:45.950Z,28.21
2022-09-03T13:23:25.047Z,27.33
2022-09-03T13:26:38.605Z,27.11
2022-09-03T13:29:55.175Z,26.58
2022-09-03T13:32:57.692Z,26.50
2022-09-03T13:35:40.513Z,25.02
2022-09-03T13:38:10.469Z,25.32
2022-09-03T13:40:56.322Z,26.11
2022-09-03T13:43:42.530Z,26.11
2022-09-03T13:46:47.021Z,25.61
2022-09-03T13:49:40.749Z,25.22
2022-09-03T13:52:20.417Z,25.21
2022-09-03T13:54:52.646Z,25.00
2022-09-03T13:57:48.933Z,25.01
2022-09-03T14:00:32.690Z,25.02
2022-09-03T14:03:48.588Z,24.59
2022-09-03T14:06:50.872Z,23.79
2022-09-03T14:09:34.092Z,24.71
2022-09-03T14:12:14.328Z,24.43
2022-09-03T14:15:00.253Z,24.80
2022-09-03T14:17:31.968Z,24.26
2022-09-03T14:20:11.099Z,24.37
2022-09-03T14:23:02.856Z,24.22
2022-09-03T14:25:30.163Z,24.11
2022-09-03T14:28:20.179Z,24.09
2022-09-03T14:30:56.014Z,24.57
2022-09-03T14:33:45.139Z,24.55
2022-09-03T14:37:04.870Z,24.90
2022-09-03T14:39:54.021Z,25.41
2022-09-03T14:42:45.054Z,25.88
2022-09-03T14:45:43.214Z,25.11
2022-09-03T14:48:28.881Z,24.87
2022-09-03T14:51:02.151Z,25.26
2022-09-03T14:53:55.773Z,25.16
2022-09-03T14:56:47.454Z,25.24
2022-09-03T14:59:17.256Z,25.02
2022-09-03T15:01:48.260Z,25.80
2022-09-03T15:04:32.437Z,24.74
2022-09-03T15:07:33.139Z,25.18
2022-09-03T15:10:24.990Z,25.12
2022-09-03T15:12:55.159Z,24.38
2022-09-03T15:15:46.879Z,24.74
2022-09-03T15:18:38.177Z,24.88
2022-09-03T15:21:43.889Z,24.47
2022-09-03T15:24:13.872Z,24.44
2022-09-03T15:27:11.768Z,24.89
2022-09-03T15:29:51.553Z,25.34
2022-09-03T15:32:23.070Z,25.09
2022-09-03T15:34:55.863Z,24.92
2022-09-03T15:37:28.447Z,24.60
2022-09-03T15:40:38.066Z,24.53
2022-09-03T15:43:32.139Z,24.24
2022-09-03T15:46:29.134Z,23.73
2022-09-03T15:49:19.159Z,24.01
2022-09-03T15:52:21.312Z,23.52
2022-09-03T15:55:06.444Z,23.58
2022-09-03T15:57:54.800Z,23.66
2022-09-03T16:00:22.882Z,23.19
2022-09-03T16:03:09.005Z,23.45
2022-09-03T16:05:52.307Z,24.04
2022-09-03T16:08:50.652Z,22.93
2022-09-03T16:11:26.827Z,23.00
2022-09-03T16:14:13.292Z,22.98
2022-09-03T16:17:09.967Z,23.07
2022-09-03T16:20:15.438Z,22.26
2022-09-03T16:22:49.391Z,23.09
2022-09-03T16:25:31.054Z,22.62
2022-09-03T16:28:07.662Z,22.50
2022-09-03T16:30:40.296Z,22.61
2022-09-03T16:33:26.071Z,22.74
2022-09-03T16:36:07.256Z,22.88
2022-09-03T16:38:49.505Z,22.45
2022-09-03T16:41:35.140Z,21.96
2022-09-03T16:44:10.102Z,22.23
2022-09-03T16:46:53.749Z,21.72
2022-09-03T16:50:04.718Z,21.85
2022-09-03T16:53:10.591Z,22.01
2022-09-03T16:55:52.622Z,21.88
2022-09-03T16:58:49.264Z,21.79
2022-09-03T17:01:40.827Z,22.33
2022-09-03T17:04:35.607Z,21.86
2022-09-03T17:07:27.555Z,21.88
2022-09-03T17:09:56.465Z,21.95
2022-09-03T17:12:48.584Z,21.94
2022-09-03T17:15:36.230Z,21.65
2022-09-03T17:18:11.203Z,21.66
2022-09-03T17:20:50.336Z,21.77
2022-09-03T17:23:31.457Z,21.39
2022-09-03T17:26:06.362Z,21.53
2022-09-03T17:29:10.961Z,21.37
2022-09-03T17:31:51.521Z,21.49
2022-09-03T17:34:40.825Z,21.13
2022-09-03T17:37:44.032Z,21.65
2022-09-03T17:40:22.541Z,21.35
2022-09-03T17:43:11.302Z,21.04
2022-09-03T17:46:05.588Z,21.62
2022-09-03T17:48:55.843Z,20.87
2022-09-03T17:51:48.860Z,21.48
2022-09-03T17:54:23.677Z,21.24
2022-09-03T17:57:03.419Z,21.21
2022-09-03T17:59:30.802Z,21.46
2022-09-03T18:02:10.629Z,21.52
2022-09-03T18:05:11.459Z,21.25
2022-09-03T18:07:44.814Z,20.88
2022-09-03T18:10:39.405Z,20.43
2022-09-03T18:13:30.155Z,20.49
2022-09-03T18:16:19.513Z,21.15
2022-09-03T18:18:54.397Z,20.52
2022-09-03T18:21:43.568Z,20.95
2022-09-03T18:24:43.332Z,20.07
2022-09-03T18:28:12.404Z,20.33
2022-09-03T18:30:58.041Z,20.35
2022-09-03T18:33:43.785Z,20.31
2022-09-03T18:36:30.781Z,20.52
2022-09-03T18:39:21.836Z,20.54
2022-09-03T18:42:33.740Z,20.38
2022-09-03T18:45:33.245Z,20.35
2022-09-03T18:48:52.801Z,19.68
2022-09-03T18:52:00.308Z,20.35
2022-09-03T18:55:08.309Z,19.92
2022-09-03T18:58:19.507Z,19.81
2022-09-03T19:01:22.326Z,19.75
2022-09-03T19:04:20.567Z,19.32
2022-09-03T19:07:20.733Z,19.49
2022-09-03T19:10:24.486Z,19.57
2022-09-03T19:13:22.982Z,19.21
2022-09-03T19:16:17.692Z,19.47
2022-09-03T19:19:27.941Z,19.45
2022-09-03T19:22:21.387Z,19.48
2022-09-03T19:25:12.696Z,19.01
2022-09-03T19:28:08.452Z,19.10
2022-09-03T19:31:03.399Z,19.50
2022-09-03T19:33:49.247Z,18.99
2022-09-03T19:36:59.488Z,18.91
2022-09-03T19:40:04.150Z,19.21
2022-09-03T19:43:03.451Z,19.08
2022-09-03T19:45:55.588Z,18.46
2022-09-03T19:48:58.891Z,19.04
2022-09-03T19:54:45.349Z,18.78
2022-09-03T19:57:32.975Z,18.18
2022-09-03T20:00:31.308Z,18.49
2022-09-03T20:03:20.302Z,18.56
2022-09-03T20:06:10.742Z,18.65
2022-09-03T20:08:57.183Z,18.46
2022-09-03T20:11:25.500Z,18.97
2022-09-03T20:14:11.039Z,18.64
2022-09-03T20:16:53.170Z,18.86
2022-09-03T20:19:41.129Z,18.36
2022-09-03T20:22:19.065Z,18.89
2022-09-03T20:25:30.911Z,18.78
2022-09-03T20:28:26.375Z,18.42
2022-09-03T20:30:56.398Z,18.39
2022-09-03T20:33:53.083Z,18.74
2022-09-03T20:36:41.885Z,18.46
2022-09-03T20:39:24.191Z,18.10
2022-09-03T20:42:21.943Z,18.37
2022-09-03T20:44:54.685Z,18.64
2022-09-03T20:47:21.514Z,18.80
2022-09-03T20:49:57.185Z,18.73
2022-09-03T20:52:35.096Z,18.57
2022-09-03T20:55:20.377Z,18.59
2022-09-03T20:58:04.499Z,18.72
2022-09-03T21:00:52.115Z,18.44
2022-09-03T21:03:29.414Z,18.66
2022-09-03T21:06:17.775Z,18.62
2022-09-03T21:09:04.317Z,18.71
2022-09-03T21:11:48.032Z,18.34
2022-09-03T21:14:33.566Z,18.36
2022-09-03T21:17:31.159Z,18.13
2022-09-03T21:20:16.544Z,18.21
2022-09-03T21:23:16.656Z,18.34
2022-09-03T21:26:25.537Z,18.02
2022-09-03T21:29:04.668Z,18.08
2022-09-03T21:31:49.891Z,18.30
2022-09-03T21:34:46.802Z,18.19
2022-09-03T21:37:14.553Z,18.28
2022-09-03T21:39:51.862Z,18.34
2022-09-03T21:42:50.238Z,18.02
2022-09-03T21:45:39.522Z,18.02
2022-09-03T21:48:13.709Z,17.89
2022-09-03T21:50:58.072Z,17.93
2022-09-03T21:53:46.383Z,17.99
2022-09-03T21:56:16.659Z,17.38
2022-09-03T21:59:08.922Z,17.57
2022-09-03T22:02:11.708Z,17.57
2022-09-03T22:04:38.644Z,17.54
2022-09-03T22:07:12.693Z,17.54
2022-09-03T22:10:01.016Z,17.33
2022-09-03T22:12:43.085Z,17.43
2022-09-03T22:15:13.343Z,17.51
2022-09-03T22:17:47.028Z,17.65
2022-09-03T22:20:15.626Z,17.49
2022-09-03T22:22:57.588Z,17.33
2022-09-03T22:25:31.357Z,17.28
2022-09-03T22:28:03.228Z,17.66
2022-09-03T22:30:45.514Z,17.20
2022-09-03T22:33:30.316Z,17.73
2022-09-03T22:36:13.579Z,17.83
2022-09-03T22:39:00.698Z,17.75
2022-09-03T22:42:00.169Z,17.83
2022-09-03T22:44:31.605Z,17.84
2022-09-03T22:47:20.039Z,17.49
2022-09-03T22:50:25.187Z,17.12
2022-09-03T22:53:04.492Z,17.77
2022-09-03T22:55:31.637Z,17.62
2022-09-03T22:58:01.554Z,17.30
2022-09-03T23:00:39.768Z,17.72
2022-09-03T23:03:19.489Z,17.46
2022-09-03T23:06:01.401Z,17.44
2022-09-03T23:08:39.578Z,17.61
2022-09-03T23:11:47.464Z,17.74
2022-09-03T23:14:19.898Z,17.90
2022-09-03T23:16:54.789Z,18.23
2022-09-03T23:19:52.818Z,18.22
2022-09-03T23:22:32.319Z,17.53
2022-09-03T23:25:15.413Z,17.74
2022-09-03T23:27:48.399Z,17.22
2022-09-03T23:30:15.890Z,17.41
2022-09-03T23:32:43.982Z,17.59
2022-09-03T23:35:17.842Z,17.42
2022-09-03T23:38:01.015Z,17.71
2022-09-03T23:40:55.036Z,17.73
2022-09-03T23:43:51.634Z,17.57
2022-09-03T23:46:21.968Z,17.67
2022-09-03T23:48:58.238Z,17.41
2022-09-03T23:51:58.347Z,17.24
2022-09-03T23:54:46.679Z,16.98
2022-09-03T23:57:38.862Z,17.25
